Time,TemperatureF,DewpointF,PressureIn,WindDirection,WindDirectionDegrees,WindSpeedMPH,WindSpeedGustMPH,Humidity,HourlyPrecipIn,Conditions,Clouds,dailyrainin,SoftwareType,DateUTC
2013-09-14 00:01:00,56.8,51.8,29.88,North,8,0.0,2.0,83,0.00,,,0.00,meteohub,2013-09-14 04:01:00,
2013-09-14 00:02:00,56.8,51.8,29.88,North,11,0.0,2.0,83,0.00,,,0.00,meteohub,2013-09-14 04:02:00,
2013-09-14 00:07:00,56.7,51.8,29.88,NNE,16,0.0,2.0,84,0.00,,,0.00,meteohub,2013-09-14 04:07:00,
2013-09-14 00:12:00,56.3,51.3,29.88,NE,44,0.0,2.0,83,0.00,,,0.00,meteohub,2013-09-14 04:12:00,
2013-09-14 00:17:00,56.1,51.6,29.88,NE,39,0.0,0.0,85,0.00,,,0.00,meteohub,2013-09-14 04:17:00,
2013-09-14 00:22:00,55.8,51.6,29.88,WNW,298,0.0,0.0,86,0.00,,,0.00,meteohub,2013-09-14 04:22:00,
2013-09-14 00:27:00,55.6,51.4,29.88,NE,56,0.0,1.0,86,0.00,,,0.00,meteohub,2013-09-14 04:27:00,
2013-09-14 00:32:00,55.4,51.3,29.88,ENE,57,0.0,1.0,86,0.00,,,0.00,meteohub,2013-09-14 04:32:00,
2013-09-14 00:37:00,55.2,51.1,29.88,NE,55,0.0,0.0,86,0.00,,,0.00,meteohub,2013-09-14 04:37:00,
2013-09-14 00:42:00,55.2,51.4,29.88,NNE,26,0.0,1.0,87,0.00,,,0.00,meteohub,2013-09-14 04:42:00,
2013-09-14 00:47:00,55.6,51.4,29.88,NNE,22,0.0,1.0,86,0.00,,,0.00,meteohub,2013-09-14 04:47:00,
2013-09-14 00:52:00,55.6,52.2,29.88,WNW,295,0.0,1.0,88,0.00,,,0.00,meteohub,2013-09-14 04:52:00,
2013-09-14 00:58:00,55.2,51.8,29.88,NW,314,0.0,1.0,88,0.00,,,0.00,meteohub,2013-09-14 04:58:00,
2013-09-14 01:03:00,55.2,51.8,29.88,NW,309,0.0,1.0,88,0.00,,,0.00,meteohub,2013-09-14 05:03:00,
2013-09-14 01:08:00,55.0,51.6,29.88,North,4,0.0,1.0,88,0.00,,,0.00,meteohub,2013-09-14 05:08:00,
2013-09-14 01:13:00,54.9,51.4,29.89,NNW,345,1.0,1.0,88,0.00,,,0.00,meteohub,2013-09-14 05:13:00,
2013-09-14 01:18:00,54.5,51.3,29.89,NNW,345,0.0,1.0,89,0.00,,,0.00,meteohub,2013-09-14 05:18:00,
2013-09-14 01:23:00,54.3,51.1,29.88,NNE,13,0.0,1.0,89,0.00,,,0.00,meteohub,2013-09-14 05:23:00,
2013-09-14 01:28:00,54.1,50.9,29.88,NNE,13,0.0,1.0,89,0.00,,,0.00,meteohub,2013-09-14 05:28:00,
2013-09-14 01:33:00,53.8,50.9,29.88,NNE,13,0.0,1.0,90,0.00,,,0.00,meteohub,2013-09-14 05:33:00,
2013-09-14 01:38:00,53.6,50.7,29.88,NNE,13,0.0,1.0,90,0.00,,,0.00,meteohub,2013-09-14 05:38:00,
2013-09-14 01:43:00,53.4,51.1,29.89,NW,305,0.0,0.0,92,0.00,,,0.00,meteohub,2013-09-14 05:43:00,
2013-09-14 01:48:00,53.1,51.1,29.89,NW,321,0.0,0.0,93,0.00,,,0.00,meteohub,2013-09-14 05:48:00,
2013-09-14 01:53:00,52.9,50.9,29.89,NNW,329,0.0,0.0,93,0.00,,,0.00,meteohub,2013-09-14 05:53:00,
2013-09-14 01:58:00,52.5,50.9,29.89,NNW,348,0.0,0.0,94,0.00,,,0.00,meteohub,2013-09-14 05:58:00,
2013-09-14 02:03:00,52.2,50.5,29.89,NNW,348,0.0,0.0,94,0.00,,,0.00,meteohub,2013-09-14 06:03:00,
2013-09-14 02:08:00,52.0,50.5,29.89,North,349,0.0,0.0,95,0.00,,,0.00,meteohub,2013-09-14 06:08:00,
2013-09-14 02:13:00,51.8,50.4,29.90,NNW,348,0.0,0.0,95,0.00,,,0.00,meteohub,2013-09-14 06:13:00,
2013-09-14 02:18:00,51.8,50.7,29.89,NNW,346,0.0,0.0,96,0.00,,,0.00,meteohub,2013-09-14 06:18:00,
2013-09-14 02:23:00,51.6,50.5,29.90,ENE,60,0.0,0.0,96,0.00,,,0.00,meteohub,2013-09-14 06:23:00,
2013-09-14 02:28:00,51.6,50.5,29.90,SE,135,0.0,0.0,96,0.00,,,0.00,meteohub,2013-09-14 06:28:00,
2013-09-14 02:33:00,51.4,50.4,29.90,SE,136,0.0,0.0,96,0.00,,,0.00,meteohub,2013-09-14 06:33:00,
2013-09-14 02:38:00,51.4,50.5,29.90,SE,136,0.0,0.0,97,0.00,,,0.00,meteohub,2013-09-14 06:38:00,
2013-09-14 02:44:00,51.3,50.4,29.90,SE,136,0.0,0.0,97,0.00,,,0.00,meteohub,2013-09-14 06:44:00,
2013-09-14 02:49:00,51.3,50.4,29.90,SE,136,0.0,0.0,97,0.00,,,0.00,meteohub,2013-09-14 06:49:00,
2013-09-14 02:54:00,51.1,50.2,29.90,SE,135,0.0,0.0,97,0.00,,,0.00,meteohub,2013-09-14 06:54:00,
2013-09-14 02:59:00,50.9,50.0,29.90,SE,136,0.0,0.0,97,0.00,,,0.00,meteohub,2013-09-14 06:59:00,
2013-09-14 03:04:00,50.7,49.8,29.90,SE,136,0.0,0.0,97,0.00,,,0.00,meteohub,2013-09-14 07:04:00,
2013-09-14 03:09:00,50.5,49.6,29.90,SE,136,0.0,0.0,97,0.00,,,0.00,meteohub,2013-09-14 07:09:00,
2013-09-14 03:14:00,50.4,49.5,29.90,SE,135,0.0,0.0,97,0.00,,,0.00,meteohub,2013-09-14 07:14:00,
2013-09-14 03:19:00,50.4,49.5,29.90,SE,135,0.0,0.0,97,0.00,,,0.00,meteohub,2013-09-14 07:19:00,
2013-09-14 03:24:00,50.4,49.5,29.91,SE,136,0.0,0.0,97,0.00,,,0.00,meteohub,2013-09-14 07:24:00,
2013-09-14 03:29:00,50.4,49.8,29.90,SE,136,0.0,0.0,98,0.00,,,0.00,meteohub,2013-09-14 07:29:00,
2013-09-14 03:34:00,50.2,49.6,29.90,SE,136,0.0,0.0,98,0.00,,,0.00,meteohub,2013-09-14 07:34:00,
2013-09-14 03:39:00,50.2,49.6,29.90,SE,136,0.0,0.0,98,0.00,,,0.00,meteohub,2013-09-14 07:39:00,
2013-09-14 03:44:00,49.8,49.3,29.90,SE,137,0.0,1.0,98,0.00,,,0.00,meteohub,2013-09-14 07:44:00,
2013-09-14 03:49:00,49.8,49.3,29.90,SE,137,0.0,1.0,98,0.00,,,0.00,meteohub,2013-09-14 07:49:00,
2013-09-14 07:55:00,47.5,47.3,29.97,North,-999,-999.0,-999.0,99,-99.99,,,0.00,meteohub,2013-09-14 11:55:00,
2013-09-14 08:00:00,47.7,47.5,29.98,North,-999,-999.0,-999.0,99,0.00,,,0.00,meteohub,2013-09-14 12:00:00,
2013-09-14 08:05:00,47.8,47.7,29.98,SE,145,0.0,0.0,99,0.00,,,0.00,meteohub,2013-09-14 12:05:00,
2013-09-14 08:10:00,48.4,48.2,29.98,SE,129,0.0,0.0,99,0.00,,,0.00,meteohub,2013-09-14 12:10:00,
2013-09-14 08:16:00,48.6,48.4,29.99,SE,130,0.0,0.0,99,0.00,,,0.00,meteohub,2013-09-14 12:16:00,
2013-09-14 08:21:00,49.3,49.1,29.99,NW,307,0.0,0.0,99,0.00,,,0.00,meteohub,2013-09-14 12:21:00,
2013-09-14 08:26:00,50.2,50.2,29.99,East,86,0.0,2.0,100,0.00,,,0.00,meteohub,2013-09-14 12:26:00,
2013-09-14 08:31:00,50.5,50.5,29.99,ESE,119,0.0,2.0,100,0.00,,,0.00,meteohub,2013-09-14 12:31:00,
2013-09-14 08:36:00,50.5,50.2,29.99,NNW,343,0.0,2.0,99,0.00,,,0.00,meteohub,2013-09-14 12:36:00,
2013-09-14 08:41:00,51.4,51.1,29.99,East,89,0.0,2.0,99,0.00,,,0.00,meteohub,2013-09-14 12:41:00,
2013-09-14 08:46:00,52.2,51.6,29.99,SE,132,0.0,2.0,98,0.00,,,0.00,meteohub,2013-09-14 12:46:00,
2013-09-14 08:51:00,52.7,51.3,29.99,ESE,105,0.0,1.0,95,0.00,,,0.00,meteohub,2013-09-14 12:51:00,
2013-09-14 08:56:00,52.9,51.3,29.99,North,4,0.0,2.0,94,0.00,,,0.00,meteohub,2013-09-14 12:56:00,
2013-09-14 09:01:00,53.4,51.8,30.00,NE,53,0.0,2.0,94,0.00,,,0.00,meteohub,2013-09-14 13:01:00,
2013-09-14 09:06:00,54.3,52.3,30.00,ESE,117,0.0,2.0,93,0.00,,,0.00,meteohub,2013-09-14 13:06:00,
2013-09-14 09:11:00,54.7,52.2,30.00,NNE,15,0.0,1.0,91,0.00,,,0.00,meteohub,2013-09-14 13:11:00,
2013-09-14 09:16:00,54.1,51.6,30.00,NNE,25,0.0,2.0,91,0.00,,,0.00,meteohub,2013-09-14 13:16:00,
2013-09-14 09:21:00,54.3,52.3,30.00,NW,305,0.0,2.0,93,0.00,,,0.00,meteohub,2013-09-14 13:21:00,
2013-09-14 09:26:00,54.7,52.3,30.01,North,355,1.0,1.0,92,0.00,,,0.00,meteohub,2013-09-14 13:26:00,
2013-09-14 09:31:00,54.5,51.6,30.01,North,1,1.0,2.0,90,0.00,,,0.00,meteohub,2013-09-14 13:31:00,
2013-09-14 09:36:00,54.7,52.2,30.01,NNE,25,0.0,4.0,91,0.00,,,0.00,meteohub,2013-09-14 13:36:00,
2013-09-14 09:41:00,55.8,52.9,30.01,ENE,73,0.0,4.0,90,0.00,,,0.00,meteohub,2013-09-14 13:41:00,
2013-09-14 09:46:00,56.8,53.1,30.01,ENE,65,1.0,3.0,87,0.00,,,0.00,meteohub,2013-09-14 13:46:00,
2013-09-14 09:51:00,57.6,53.8,30.01,ENE,75,0.0,3.0,87,0.00,,,0.00,meteohub,2013-09-14 13:51:00,
2013-09-14 09:56:00,58.5,54.0,30.01,NNW,338,2.0,3.0,85,0.00,,,0.00,meteohub,2013-09-14 13:56:00,
2013-09-14 10:01:00,58.8,54.0,30.01,NE,56,3.0,3.0,84,0.00,,,0.00,meteohub,2013-09-14 14:01:00,
2013-09-14 10:06:00,58.8,53.6,30.01,North,6,2.0,4.0,83,0.00,,,0.00,meteohub,2013-09-14 14:06:00,
2013-09-14 10:11:00,59.2,54.0,30.02,NE,49,0.0,4.0,83,0.00,,,0.00,meteohub,2013-09-14 14:11:00,
2013-09-14 10:16:00,59.2,53.6,30.02,East,89,3.0,5.0,82,0.00,,,0.00,meteohub,2013-09-14 14:16:00,
2013-09-14 10:22:00,59.5,53.4,30.02,SSE,152,2.0,5.0,80,0.00,,,0.00,meteohub,2013-09-14 14:22:00,
2013-09-14 10:27:00,60.1,53.6,30.02,NW,319,2.0,5.0,79,0.00,,,0.00,meteohub,2013-09-14 14:27:00,
2013-09-14 10:32:00,60.4,53.2,30.03,ESE,103,1.0,5.0,77,0.00,,,0.00,meteohub,2013-09-14 14:32:00,
2013-09-14 10:37:00,60.4,52.9,30.02,East,100,2.0,7.0,76,0.00,,,0.00,meteohub,2013-09-14 14:37:00,
2013-09-14 10:42:00,61.0,54.1,30.03,East,82,1.0,7.0,78,0.00,,,0.00,meteohub,2013-09-14 14:42:00,
2013-09-14 10:47:00,61.5,54.0,30.03,ESE,103,0.0,7.0,76,0.00,,,0.00,meteohub,2013-09-14 14:47:00,
2013-09-14 10:52:00,61.9,53.8,30.03,ENE,77,1.0,6.0,75,0.00,,,0.00,meteohub,2013-09-14 14:52:00,
2013-09-14 10:57:00,62.2,53.8,30.03,NNE,30,4.0,4.0,74,0.00,,,0.00,meteohub,2013-09-14 14:57:00,
2013-09-14 11:02:00,61.9,53.8,30.03,NNE,18,0.0,5.0,75,0.00,,,0.00,meteohub,2013-09-14 15:02:00,
2013-09-14 11:07:00,62.8,54.3,30.03,NNW,335,2.0,5.0,74,0.00,,,0.00,meteohub,2013-09-14 15:07:00,
2013-09-14 11:12:00,63.0,53.4,30.03,East,79,2.0,7.0,71,0.00,,,0.00,meteohub,2013-09-14 15:12:00,
2013-09-14 11:17:00,63.1,53.6,30.03,East,85,0.0,7.0,71,0.00,,,0.00,meteohub,2013-09-14 15:17:00,
2013-09-14 11:22:00,64.2,53.8,30.02,NNE,32,2.0,7.0,69,0.00,,,0.00,meteohub,2013-09-14 15:22:00,
2013-09-14 11:27:00,64.6,53.8,30.02,SSE,159,0.0,4.0,68,0.00,,,0.00,meteohub,2013-09-14 15:27:00,
2013-09-14 11:32:00,64.9,53.2,30.02,NNW,345,1.0,4.0,66,0.00,,,0.00,meteohub,2013-09-14 15:32:00,
2013-09-14 11:37:00,64.6,53.8,30.03,NNW,343,3.0,4.0,68,0.00,,,0.00,meteohub,2013-09-14 15:37:00,
2013-09-14 11:42:00,64.9,54.9,30.03,ENE,76,2.0,4.0,70,0.00,,,0.00,meteohub,2013-09-14 15:42:00,
2013-09-14 11:47:00,65.1,54.7,30.03,NE,49,1.0,7.0,69,0.00,,,0.00,meteohub,2013-09-14 15:47:00,
2013-09-14 11:52:00,65.8,54.1,30.03,NE,44,1.0,7.0,66,0.00,,,0.00,meteohub,2013-09-14 15:52:00,
2013-09-14 11:57:00,65.7,54.0,30.03,NE,41,0.0,7.0,66,0.00,,,0.00,meteohub,2013-09-14 15:57:00,
2013-09-14 12:02:00,65.7,53.6,30.03,NE,53,0.0,5.0,65,0.00,,,0.00,meteohub,2013-09-14 16:02:00,
2013-09-14 12:07:00,66.0,53.1,30.03,ENE,65,0.0,5.0,63,0.00,,,0.00,meteohub,2013-09-14 16:07:00,
2013-09-14 12:12:00,66.2,54.1,30.03,NNW,347,0.0,6.0,65,0.00,,,0.00,meteohub,2013-09-14 16:12:00,
2013-09-14 12:17:00,67.3,53.4,30.03,East,86,3.0,6.0,61,0.00,,,0.00,meteohub,2013-09-14 16:17:00,
2013-09-14 12:22:00,66.6,53.6,30.03,East,89,2.0,5.0,63,0.00,,,0.00,meteohub,2013-09-14 16:22:00,
2013-09-14 12:27:00,67.1,53.2,30.03,WSW,240,0.0,4.0,61,0.00,,,0.00,meteohub,2013-09-14 16:27:00,
2013-09-14 12:32:00,67.5,54.0,30.03,NNW,330,2.0,4.0,62,0.00,,,0.00,meteohub,2013-09-14 16:32:00,
2013-09-14 12:37:00,67.8,53.4,30.02,ENE,71,1.0,5.0,60,0.00,,,0.00,meteohub,2013-09-14 16:37:00,
2013-09-14 12:42:00,68.5,55.4,30.02,NNW,342,3.0,5.0,63,0.00,,,0.00,meteohub,2013-09-14 16:42:00,
2013-09-14 12:47:00,69.1,55.9,30.02,NE,34,2.0,5.0,63,0.00,,,0.00,meteohub,2013-09-14 16:47:00,
2013-09-14 12:52:00,68.7,54.3,30.02,SSE,153,0.0,4.0,60,0.00,,,0.00,meteohub,2013-09-14 16:52:00,
2013-09-14 12:57:00,69.6,53.8,30.02,North,352,0.0,3.0,57,0.00,,,0.00,meteohub,2013-09-14 16:57:00,
2013-09-14 13:02:00,69.8,54.9,30.02,NNW,348,1.0,3.0,59,0.00,,,0.00,meteohub,2013-09-14 17:02:00,
2013-09-14 13:07:00,70.2,54.1,30.02,NE,44,0.0,3.0,57,0.00,,,0.00,meteohub,2013-09-14 17:07:00,
2013-09-14 13:12:00,70.3,55.4,30.02,NNW,328,0.0,4.0,59,0.00,,,0.00,meteohub,2013-09-14 17:12:00,
2013-09-14 13:17:00,70.7,54.3,30.01,NNE,22,2.0,4.0,56,0.00,,,0.00,meteohub,2013-09-14 17:17:00,
2013-09-14 13:22:00,70.5,54.1,30.01,North,358,2.0,4.0,56,0.00,,,0.00,meteohub,2013-09-14 17:22:00,
2013-09-14 13:27:00,70.9,55.4,30.01,SSE,156,5.0,5.0,58,0.00,,,0.00,meteohub,2013-09-14 17:27:00,
2013-09-14 13:32:00,70.5,54.5,30.01,North,1,2.0,5.0,57,0.00,,,0.00,meteohub,2013-09-14 17:32:00,
2013-09-14 13:37:00,70.9,55.4,30.01,East,79,2.0,5.0,58,0.00,,,0.00,meteohub,2013-09-14 17:37:00,
2013-09-14 13:42:00,70.3,55.8,30.01,ENE,74,0.0,5.0,60,0.00,,,0.00,meteohub,2013-09-14 17:42:00,
2013-09-14 13:47:00,69.3,53.4,30.01,ESE,118,0.0,4.0,57,0.00,,,0.00,meteohub,2013-09-14 17:47:00,
2013-09-14 13:52:00,69.1,53.6,30.01,East,96,0.0,4.0,58,0.00,,,0.00,meteohub,2013-09-14 17:52:00,
2013-09-14 13:57:00,69.1,55.6,30.01,South,191,0.0,2.0,62,0.00,,,0.00,meteohub,2013-09-14 17:57:00,
2013-09-14 14:02:00,69.1,55.9,30.01,SE,134,0.0,1.0,63,0.00,,,0.00,meteohub,2013-09-14 18:02:00,
2013-09-14 14:07:00,69.1,56.5,30.01,East,101,0.0,1.0,64,0.00,,,0.00,meteohub,2013-09-14 18:07:00,
2013-09-14 14:12:00,69.1,55.6,30.01,East,86,0.0,1.0,62,0.00,,,0.00,meteohub,2013-09-14 18:12:00,
2013-09-14 14:17:00,69.8,54.9,30.01,NNE,12,0.0,1.0,59,0.00,,,0.00,meteohub,2013-09-14 18:17:00,
2013-09-14 14:22:00,71.2,57.0,30.01,SE,127,1.0,1.0,61,0.00,,,0.00,meteohub,2013-09-14 18:22:00,
2013-09-14 14:27:00,72.1,56.5,30.01,ESE,111,1.0,2.0,58,0.00,,,0.00,meteohub,2013-09-14 18:27:00,
2013-09-14 14:32:00,72.5,55.4,30.00,WNW,287,0.0,3.0,55,0.00,,,0.00,meteohub,2013-09-14 18:32:00,
2013-09-14 14:37:00,73.6,56.8,30.00,South,188,0.0,3.0,56,0.00,,,0.00,meteohub,2013-09-14 18:37:00,
2013-09-14 14:42:00,73.9,54.7,30.00,West,262,1.0,5.0,51,0.00,,,0.00,meteohub,2013-09-14 18:42:00,
2013-09-14 14:47:00,72.3,55.2,30.00,SW,226,1.0,5.0,55,0.00,,,0.00,meteohub,2013-09-14 18:47:00,
2013-09-14 14:52:00,72.9,56.3,30.00,SSE,148,0.0,5.0,56,0.00,,,0.00,meteohub,2013-09-14 18:52:00,
2013-09-14 14:57:00,73.9,55.2,30.00,WSW,249,0.0,4.0,52,0.00,,,0.00,meteohub,2013-09-14 18:57:00,
2013-09-14 15:02:00,74.5,58.3,30.00,ESE,110,0.0,4.0,57,0.00,,,0.00,meteohub,2013-09-14 19:02:00,
2013-09-14 15:07:00,73.9,53.6,29.99,East,94,1.0,5.0,49,0.00,,,0.00,meteohub,2013-09-14 19:07:00,
2013-09-14 15:12:00,73.6,55.4,29.99,SE,134,0.0,5.0,53,0.00,,,0.00,meteohub,2013-09-14 19:12:00,
2013-09-14 15:17:00,74.3,56.1,29.99,ESE,103,1.0,4.0,53,0.00,,,0.00,meteohub,2013-09-14 19:17:00,
2013-09-14 15:22:00,74.3,56.7,29.99,NW,326,0.0,4.0,54,0.00,,,0.00,meteohub,2013-09-14 19:22:00,
2013-09-14 15:27:00,73.8,55.6,29.99,SSE,166,1.0,6.0,53,0.00,,,0.00,meteohub,2013-09-14 19:27:00,
2013-09-14 15:32:00,73.8,56.1,29.99,ESE,122,3.0,6.0,54,0.00,,,0.00,meteohub,2013-09-14 19:32:00,
2013-09-14 15:37:00,73.8,56.1,29.99,SSE,165,2.0,6.0,54,0.00,,,0.00,meteohub,2013-09-14 19:37:00,
2013-09-14 15:42:00,75.0,57.7,29.99,NW,309,2.0,6.0,55,0.00,,,0.00,meteohub,2013-09-14 19:42:00,
2013-09-14 15:47:00,75.9,58.1,29.99,NW,326,0.0,5.0,54,0.00,,,0.00,meteohub,2013-09-14 19:47:00,
2013-09-14 15:52:00,75.7,56.3,29.99,East,79,1.0,4.0,51,0.00,,,0.00,meteohub,2013-09-14 19:52:00,
2013-09-14 15:57:00,74.1,56.8,29.99,SE,136,5.0,6.0,55,0.00,,,0.00,meteohub,2013-09-14 19:57:00,
2013-09-14 16:02:00,72.1,54.5,29.99,ENE,75,0.0,6.0,54,0.00,,,0.00,meteohub,2013-09-14 20:02:00,
2013-09-14 16:07:00,71.4,55.9,29.99,NW,319,0.0,5.0,58,0.00,,,0.00,meteohub,2013-09-14 20:07:00,
2013-09-14 16:12:00,70.9,56.8,30.00,East,96,2.0,5.0,61,0.00,,,0.00,meteohub,2013-09-14 20:12:00,
2013-09-14 16:17:00,69.8,57.0,30.00,East,101,2.0,3.0,64,0.00,,,0.00,meteohub,2013-09-14 20:17:00,
2013-09-14 16:22:00,69.4,57.2,30.00,North,353,0.0,4.0,65,0.00,,,0.00,meteohub,2013-09-14 20:22:00,
2013-09-14 16:27:00,69.6,57.7,30.00,ENE,72,0.0,4.0,66,0.00,,,0.00,meteohub,2013-09-14 20:27:00,
2013-09-14 16:32:00,69.6,56.8,30.00,South,177,2.0,4.0,64,0.00,,,0.00,meteohub,2013-09-14 20:32:00,
2013-09-14 16:37:00,69.3,57.0,30.00,SSE,165,1.0,5.0,65,0.00,,,0.00,meteohub,2013-09-14 20:37:00,
2013-09-14 16:42:00,69.1,57.7,30.01,SSE,165,0.0,5.0,67,0.00,,,0.00,meteohub,2013-09-14 20:42:00,
2013-09-14 16:47:00,68.9,58.3,30.01,ESE,106,0.0,5.0,69,0.00,,,0.00,meteohub,2013-09-14 20:47:00,
2013-09-14 16:52:00,69.1,58.8,30.01,ESE,120,1.0,3.0,70,0.00,,,0.00,meteohub,2013-09-14 20:52:00,
2013-09-14 16:57:00,69.1,57.2,30.01,ESE,109,3.0,4.0,66,0.00,,,0.00,meteohub,2013-09-14 20:57:00,
2013-09-14 17:02:00,68.9,58.3,30.01,ESE,119,0.0,4.0,69,0.00,,,0.00,meteohub,2013-09-14 21:02:00,
2013-09-14 17:07:00,68.5,57.9,30.01,SSE,167,0.0,4.0,69,0.00,,,0.00,meteohub,2013-09-14 21:07:00,
2013-09-14 17:12:00,68.5,57.9,30.01,South,184,1.0,4.0,69,0.00,,,0.00,meteohub,2013-09-14 21:12:00,
2013-09-14 17:17:00,68.5,56.7,30.01,SE,143,1.0,3.0,66,0.00,,,0.00,meteohub,2013-09-14 21:17:00,
2013-09-14 17:22:00,68.2,56.8,30.01,ESE,105,0.0,5.0,67,0.00,,,0.00,meteohub,2013-09-14 21:22:00,
2013-09-14 17:27:00,68.4,56.1,30.02,SE,136,4.0,5.0,65,0.00,,,0.00,meteohub,2013-09-14 21:27:00,
2013-09-14 17:32:00,68.2,57.6,30.02,SE,138,2.0,6.0,69,0.00,,,0.00,meteohub,2013-09-14 21:32:00,
2013-09-14 17:37:00,68.0,56.7,30.02,ENE,76,0.0,6.0,67,0.00,,,0.00,meteohub,2013-09-14 21:37:00,
2013-09-14 17:42:00,67.8,57.7,30.02,SE,134,1.0,6.0,70,0.00,,,0.00,meteohub,2013-09-14 21:42:00,
2013-09-14 17:47:00,67.5,57.4,30.02,SE,125,1.0,3.0,70,0.00,,,0.00,meteohub,2013-09-14 21:47:00,
2013-09-14 17:52:00,67.3,57.9,30.02,SE,128,0.0,2.0,72,0.00,,,0.00,meteohub,2013-09-14 21:52:00,
2013-09-14 17:57:00,66.9,57.6,30.03,SSE,162,0.0,2.0,72,0.00,,,0.00,meteohub,2013-09-14 21:57:00,
2013-09-14 18:02:00,66.9,58.8,30.03,SW,229,0.0,2.0,75,0.00,,,0.00,meteohub,2013-09-14 22:02:00,
2013-09-14 18:07:00,66.7,57.7,30.03,ESE,113,0.0,2.0,73,0.00,,,0.00,meteohub,2013-09-14 22:07:00,
2013-09-14 18:12:00,66.6,57.2,30.03,East,83,0.0,2.0,72,0.00,,,0.00,meteohub,2013-09-14 22:12:00,
2013-09-14 18:17:00,66.6,57.2,30.03,ESE,116,0.0,2.0,72,0.00,,,0.00,meteohub,2013-09-14 22:17:00,
2013-09-14 18:22:00,66.4,58.3,30.04,ESE,122,0.0,2.0,75,0.00,,,0.00,meteohub,2013-09-14 22:22:00,
2013-09-14 18:27:00,66.0,58.6,30.04,SE,134,0.0,2.0,77,0.00,,,0.00,meteohub,2013-09-14 22:27:00,
2013-09-14 18:32:00,65.8,58.1,30.04,SE,134,0.0,1.0,76,0.00,,,0.00,meteohub,2013-09-14 22:32:00,
2013-09-14 18:37:00,65.7,59.0,30.04,SE,134,0.0,1.0,79,0.00,,,0.00,meteohub,2013-09-14 22:37:00,
2013-09-14 18:42:00,65.3,59.0,30.04,ESE,121,0.0,1.0,80,0.00,,,0.00,meteohub,2013-09-14 22:42:00,
2013-09-14 18:47:00,65.1,59.9,30.04,SSE,153,0.0,0.0,83,0.00,,,0.00,meteohub,2013-09-14 22:47:00,
2013-09-14 18:52:00,64.9,59.9,30.04,SE,143,0.0,0.0,84,0.00,,,0.00,meteohub,2013-09-14 22:52:00,
2013-09-14 18:53:00,64.9,59.7,30.04,SE,143,0.0,0.0,83,0.00,,,0.00,meteohub,2013-09-14 22:53:00,
2013-09-14 18:58:00,64.8,59.9,30.04,SE,143,0.0,1.0,84,0.00,,,0.00,meteohub,2013-09-14 22:58:00,
2013-09-14 19:03:00,64.2,59.0,30.04,SE,144,0.0,1.0,83,0.00,,,0.00,meteohub,2013-09-14 23:03:00,
2013-09-14 19:08:00,63.7,59.0,30.04,SE,142,0.0,1.0,85,0.00,,,0.00,meteohub,2013-09-14 23:08:00,
2013-09-14 19:13:00,63.0,58.6,30.04,SE,144,0.0,0.0,86,0.00,,,0.00,meteohub,2013-09-14 23:13:00,
2013-09-14 19:18:00,62.2,58.6,30.04,SE,143,0.0,0.0,88,0.00,,,0.00,meteohub,2013-09-14 23:18:00,
2013-09-14 19:23:00,61.5,57.9,30.04,SE,143,0.0,0.0,88,0.00,,,0.00,meteohub,2013-09-14 23:23:00,
2013-09-14 19:28:00,61.0,57.7,30.04,SE,143,0.0,0.0,89,0.00,,,0.00,meteohub,2013-09-14 23:28:00,
2013-09-14 19:33:00,60.4,57.6,30.04,SE,142,0.0,0.0,90,0.00,,,0.00,meteohub,2013-09-14 23:33:00,
2013-09-14 19:38:00,59.7,57.4,30.04,SE,142,0.0,0.0,92,0.00,,,0.00,meteohub,2013-09-14 23:38:00,
2013-09-14 19:43:00,59.4,57.0,30.04,SE,142,0.0,0.0,92,0.00,,,0.00,meteohub,2013-09-14 23:43:00,
2013-09-14 19:48:00,58.8,56.8,30.04,SE,143,0.0,0.0,93,0.00,,,0.00,meteohub,2013-09-14 23:48:00,
2013-09-14 19:53:00,58.5,56.7,30.05,SE,143,0.0,0.0,94,0.00,,,0.00,meteohub,2013-09-14 23:53:00,
2013-09-14 19:59:00,58.1,56.3,30.04,SE,142,0.0,0.0,94,0.00,,,0.00,meteohub,2013-09-14 23:59:00,
2013-09-14 20:04:00,57.7,56.3,30.04,SE,142,0.0,0.0,95,0.00,,,0.00,meteohub,2013-09-15 00:04:00,
2013-09-14 20:09:00,57.4,55.9,30.04,SE,142,0.0,0.0,95,0.00,,,0.00,meteohub,2013-09-15 00:09:00,
2013-09-14 20:14:00,57.0,55.6,30.05,SE,142,0.0,0.0,95,0.00,,,0.00,meteohub,2013-09-15 00:14:00,
2013-09-14 20:19:00,56.8,55.4,30.05,SE,143,0.0,0.0,95,0.00,,,0.00,meteohub,2013-09-15 00:19:00,
2013-09-14 20:24:00,56.5,55.0,30.06,SE,143,0.0,0.0,95,0.00,,,0.00,meteohub,2013-09-15 00:24:00,
2013-09-14 20:29:00,55.9,54.9,30.06,SE,143,0.0,0.0,96,0.00,,,0.00,meteohub,2013-09-15 00:29:00,
2013-09-14 20:34:00,55.8,54.7,30.06,SE,143,0.0,0.0,96,0.00,,,0.00,meteohub,2013-09-15 00:34:00,
2013-09-14 20:39:00,55.8,54.9,30.06,SE,142,0.0,0.0,97,0.00,,,0.00,meteohub,2013-09-15 00:39:00,
2013-09-14 20:44:00,55.6,54.7,30.06,SE,142,0.0,0.0,97,0.00,,,0.00,meteohub,2013-09-15 00:44:00,
2013-09-14 20:49:00,55.6,54.7,30.06,SE,143,0.0,0.0,97,0.00,,,0.00,meteohub,2013-09-15 00:49:00,
2013-09-14 20:54:00,55.4,54.5,30.07,SSE,148,0.0,0.0,97,0.00,,,0.00,meteohub,2013-09-15 00:54:00,
2013-09-14 20:59:00,55.2,54.3,30.07,SSE,148,0.0,0.0,97,0.00,,,0.00,meteohub,2013-09-15 00:59:00,
2013-09-14 21:04:00,55.0,54.1,30.07,SSE,148,0.0,0.0,97,0.00,,,0.00,meteohub,2013-09-15 01:04:00,
2013-09-14 21:09:00,54.7,53.8,30.07,SSE,148,0.0,0.0,97,0.00,,,0.00,meteohub,2013-09-15 01:09:00,
2013-09-14 21:14:00,54.7,54.1,30.08,SSE,148,0.0,0.0,98,0.00,,,0.00,meteohub,2013-09-15 01:14:00,
2013-09-14 21:19:00,54.7,54.1,30.08,SSE,148,0.0,0.0,98,0.00,,,0.00,meteohub,2013-09-15 01:19:00,
2013-09-14 21:24:00,54.7,54.1,30.08,SSE,148,0.0,0.0,98,0.00,,,0.00,meteohub,2013-09-15 01:24:00,
2013-09-14 21:29:00,54.3,53.8,30.08,SSE,148,0.0,0.0,98,0.00,,,0.00,meteohub,2013-09-15 01:29:00,
2013-09-14 21:34:00,54.1,53.6,30.08,SSE,148,0.0,0.0,98,0.00,,,0.00,meteohub,2013-09-15 01:34:00,
2013-09-14 21:39:00,54.0,53.4,30.09,SSE,148,0.0,0.0,98,0.00,,,0.00,meteohub,2013-09-15 01:39:00,
2013-09-14 21:44:00,54.0,53.4,30.09,SSE,148,0.0,0.0,98,0.00,,,0.00,meteohub,2013-09-15 01:44:00,
2013-09-14 21:49:00,53.8,53.2,30.09,SSE,148,0.0,0.0,98,0.00,,,0.00,meteohub,2013-09-15 01:49:00,
2013-09-14 21:54:00,53.8,53.2,30.09,SSE,148,0.0,0.0,98,0.00,,,0.00,meteohub,2013-09-15 01:54:00,
2013-09-14 21:59:00,53.6,53.1,30.10,SSE,148,0.0,0.0,98,0.00,,,0.00,meteohub,2013-09-15 01:59:00,
2013-09-14 22:04:00,53.6,53.2,30.10,SSE,148,0.0,0.0,99,0.00,,,0.00,meteohub,2013-09-15 02:04:00,
2013-09-14 22:10:00,53.4,52.9,30.10,SSE,148,0.0,0.0,98,0.00,,,0.00,meteohub,2013-09-15 02:10:00,
2013-09-14 22:15:00,53.2,52.9,30.10,SSE,148,0.0,0.0,99,0.00,,,0.00,meteohub,2013-09-15 02:15:00,
2013-09-14 22:20:00,53.2,52.9,30.10,SSE,148,0.0,0.0,99,0.00,,,0.00,meteohub,2013-09-15 02:20:00,
2013-09-14 22:25:00,53.1,52.7,30.10,SSE,148,0.0,0.0,99,0.00,,,0.00,meteohub,2013-09-15 02:25:00,
2013-09-14 22:30:00,52.9,52.5,30.10,SSE,148,0.0,0.0,99,0.00,,,0.00,meteohub,2013-09-15 02:30:00,
2013-09-14 22:35:00,53.1,52.7,30.10,SSE,148,0.0,0.0,99,0.00,,,0.00,meteohub,2013-09-15 02:35:00,
2013-09-14 22:40:00,52.9,52.5,30.10,SSE,148,0.0,0.0,99,0.00,,,0.00,meteohub,2013-09-15 02:40:00,
2013-09-14 22:45:00,52.7,52.3,30.10,SSE,148,0.0,0.0,99,0.00,,,0.00,meteohub,2013-09-15 02:45:00,
2013-09-14 22:50:00,52.5,52.2,30.10,SSE,148,0.0,0.0,99,0.00,,,0.00,meteohub,2013-09-15 02:50:00,
2013-09-14 22:55:00,52.3,52.0,30.11,SSE,148,0.0,0.0,99,0.00,,,0.00,meteohub,2013-09-15 02:55:00,
2013-09-14 23:00:00,52.2,51.8,30.11,SSE,148,0.0,0.0,99,0.00,,,0.00,meteohub,2013-09-15 03:00:00,
2013-09-14 23:05:00,52.0,51.6,30.11,SSE,148,0.0,0.0,99,0.00,,,0.00,meteohub,2013-09-15 03:05:00,
2013-09-14 23:10:00,51.6,51.3,30.11,SSE,148,0.0,0.0,99,0.00,,,0.00,meteohub,2013-09-15 03:10:00,
2013-09-14 23:15:00,51.4,51.1,30.11,SSE,148,0.0,0.0,99,0.00,,,0.00,meteohub,2013-09-15 03:15:00,
2013-09-14 23:20:00,51.6,51.3,30.11,SSE,148,0.0,0.0,99,0.00,,,0.00,meteohub,2013-09-15 03:20:00,
2013-09-14 23:25:00,51.6,51.3,30.11,SSE,148,0.0,0.0,99,0.00,,,0.00,meteohub,2013-09-15 03:25:00,
2013-09-14 23:30:00,51.6,51.3,30.12,SSE,148,0.0,0.0,99,0.00,,,0.00,meteohub,2013-09-15 03:30:00,
2013-09-14 23:35:00,51.6,51.3,30.12,WSW,252,0.0,0.0,99,0.00,,,0.00,meteohub,2013-09-15 03:35:00,
2013-09-14 23:40:00,51.4,51.1,30.12,WSW,249,0.0,0.0,99,0.00,,,0.00,meteohub,2013-09-15 03:40:00,
2013-09-14 23:45:00,51.6,51.3,30.12,West,269,0.0,0.0,99,0.00,,,0.00,meteohub,2013-09-15 03:45:00,
2013-09-14 23:50:00,51.4,51.1,30.12,West,269,0.0,0.0,99,0.00,,,0.00,meteohub,2013-09-15 03:50:00,
2013-09-14 23:55:00,51.4,51.1,30.12,West,269,0.0,0.0,99,0.00,,,0.00,meteohub,2013-09-15 03:55:00,